TimePDT,TemperatureF,Dew PointF,Humidity,Sea Level PressureIn,VisibilityMPH,Wind Direction,Wind SpeedMPH,Gust SpeedMPH,PrecipitationIn,Events,Conditions,WindDirDegrees,DateUTC
12:15 AM,55.4,53.6,94,29.93,10.0,NNW,3.5,-,N/A,,Clear,340,2013-08-22 07:15:00
12:35 AM,53.6,53.6,100,29.93,10.0,NNE,3.5,-,N/A,,Clear,20,2013-08-22 07:35:00
12:55 AM,53.6,53.6,100,29.93,10.0,Calm,Calm,-,N/A,,Clear,0,2013-08-22 07:55:00
1:15 AM,55.4,53.6,94,29.93,10.0,Calm,Calm,-,N/A,,Clear,0,2013-08-22 08:15:00
1:35 AM,55.4,53.6,94,29.93,10.0,NNW,4.6,-,N/A,,Clear,330,2013-08-22 08:35:00
1:55 AM,55.4,55.4,100,29.93,10.0,NNW,3.5,-,N/A,,Clear,340,2013-08-22 08:55:00
2:15 AM,55.4,55.4,100,29.92,10.0,West,3.5,-,N/A,,Clear,260,2013-08-22 09:15:00
2:35 AM,53.6,53.6,100,29.92,10.0,North,3.5,-,N/A,,Clear,360,2013-08-22 09:35:00
2:55 AM,55.4,55.4,100,29.93,10.0,Calm,Calm,-,N/A,,Clear,0,2013-08-22 09:55:00
3:15 AM,55.4,53.6,94,29.93,10.0,Calm,Calm,-,N/A,,Clear,0,2013-08-22 10:15:00
3:35 AM,55.4,53.6,94,29.93,10.0,Calm,Calm,-,N/A,,Clear,0,2013-08-22 10:35:00
3:55 AM,55.4,53.6,94,29.93,10.0,Calm,Calm,-,N/A,,Partly Cloudy,0,2013-08-22 10:55:00
4:15 AM,55.4,53.6,94,29.93,10.0,WNW,3.5,-,N/A,,Scattered Clouds,290,2013-08-22 11:15:00
4:35 AM,55.4,55.4,100,29.93,10.0,NNW,6.9,-,N/A,,Mostly Cloudy,330,2013-08-22 11:35:00
4:55 AM,55.4,55.4,100,29.93,10.0,Calm,Calm,-,N/A,,Overcast,0,2013-08-22 11:55:00
5:15 AM,55.4,55.4,100,29.93,10.0,WNW,3.5,-,N/A,,Overcast,300,2013-08-22 12:15:00
5:35 AM,57.2,55.4,94,29.93,10.0,NE,3.5,-,N/A,,Overcast,50,2013-08-22 12:35:00
5:55 AM,57.2,55.4,94,29.93,10.0,Calm,Calm,-,N/A,,Overcast,0,2013-08-22 12:55:00
6:15 AM,55.4,55.4,100,29.94,10.0,North,5.8,-,N/A,,Overcast,350,2013-08-22 13:15:00
6:35 AM,55.4,55.4,100,29.94,10.0,Calm,Calm,-,N/A,,Overcast,0,2013-08-22 13:35:00
6:55 AM,57.2,55.4,94,29.95,10.0,Calm,Calm,-,N/A,,Overcast,0,2013-08-22 13:55:00
7:15 AM,57.2,55.4,94,29.96,10.0,WSW,10.4,-,N/A,,Overcast,250,2013-08-22 14:15:00
7:35 AM,57.2,55.4,94,29.96,10.0,Calm,Calm,-,N/A,,Overcast,0,2013-08-22 14:35:00
7:55 AM,57.2,55.4,94,29.96,10.0,Calm,Calm,-,N/A,,Overcast,0,2013-08-22 14:55:00
8:15 AM,57.2,55.4,94,29.97,10.0,WSW,4.6,-,N/A,,Overcast,240,2013-08-22 15:15:00
8:35 AM,59.0,55.4,88,29.98,10.0,Calm,Calm,-,N/A,,Overcast,0,2013-08-22 15:35:00
8:55 AM,59.0,55.4,88,29.98,10.0,Calm,Calm,-,N/A,,Overcast,0,2013-08-22 15:55:00
9:15 AM,59.0,53.6,82,29.98,10.0,West,4.6,-,N/A,,Overcast,260,2013-08-22 16:15:00
9:35 AM,59.0,53.6,82,29.98,10.0,Calm,Calm,-,N/A,,Overcast,0,2013-08-22 16:35:00
9:55 AM,62.6,53.6,72,29.99,10.0,NW,8.1,-,N/A,,Overcast,320,2013-08-22 16:55:00
10:15 AM,62.6,53.6,72,29.99,10.0,NNW,8.1,-,N/A,,Overcast,330,2013-08-22 17:15:00
10:35 AM,62.6,53.6,72,29.99,10.0,WSW,5.8,-,N/A,,Overcast,250,2013-08-22 17:35:00
10:55 AM,64.4,53.6,68,29.99,10.0,WNW,5.8,-,N/A,,Unknown,300,2013-08-22 17:55:00
11:15 AM,64.4,53.6,68,29.98,10.0,NNW,5.8,-,N/A,,Unknown,330,2013-08-22 18:15:00
11:35 AM,66.2,53.6,64,29.98,-9999.0,West,3.5,-,N/A,,Unknown,270,2013-08-22 18:35:00
11:55 AM,68.0,53.6,60,29.97,-9999.0,SSW,8.1,-,N/A,,Unknown,200,2013-08-22 18:55:00
12:15 PM,69.8,53.6,56,29.97,-9999.0,SW,5.8,-,N/A,,Unknown,220,2013-08-22 19:15:00
12:35 PM,71.6,53.6,53,29.96,-9999.0,SW,6.9,-,N/A,,Unknown,230,2013-08-22 19:35:00
12:55 PM,71.6,53.6,53,29.95,-9999.0,WNW,5.8,-,N/A,,Unknown,300,2013-08-22 19:55:00
1:15 PM,73.4,53.6,50,29.95,-9999.0,West,6.9,-,N/A,,Unknown,260,2013-08-22 20:15:00
1:35 PM,73.4,53.6,50,29.95,-9999.0,West,9.2,-,N/A,,Unknown,280,2013-08-22 20:35:00
1:55 PM,73.4,53.6,50,29.94,-9999.0,West,8.1,-,N/A,,Unknown,270,2013-08-22 20:55:00
2:15 PM,73.4,53.6,50,29.94,-9999.0,WSW,11.5,-,N/A,,Unknown,240,2013-08-22 21:15:00
2:35 PM,73.4,53.6,50,29.94,-9999.0,WSW,13.8,20.7,N/A,,Unknown,250,2013-08-22 21:35:00
2:55 PM,73.4,53.6,50,29.94,-9999.0,West,4.6,-,N/A,,Unknown,280,2013-08-22 21:55:00
3:15 PM,73.4,53.6,50,29.93,-9999.0,WSW,5.8,21.9,N/A,,Unknown,250,2013-08-22 22:15:00
3:35 PM,73.4,53.6,50,29.93,-9999.0,WNW,8.1,-,N/A,,Unknown,300,2013-08-22 22:35:00
3:55 PM,73.4,53.6,50,29.92,-9999.0,NW,9.2,17.3,N/A,,Unknown,310,2013-08-22 22:55:00
4:15 PM,73.4,53.6,50,29.92,-9999.0,NW,9.2,-,N/A,,Unknown,320,2013-08-22 23:15:00
4:35 PM,71.6,53.6,53,29.91,-9999.0,WSW,10.4,18.4,N/A,,Unknown,250,2013-08-22 23:35:00
4:55 PM,71.6,53.6,53,29.91,-9999.0,WSW,11.5,16.1,N/A,,Unknown,250,2013-08-22 23:55:00
5:15 PM,71.6,53.6,53,29.91,-9999.0,West,5.8,-,N/A,,Unknown,270,2013-08-23 00:15:00
5:35 PM,69.8,53.6,56,29.91,-9999.0,WSW,12.7,19.6,N/A,,Clear,240,2013-08-23 00:35:00
5:55 PM,68.0,53.6,60,29.91,-9999.0,WSW,13.8,18.4,N/A,,Clear,240,2013-08-23 00:55:00
6:15 PM,66.2,53.6,64,29.91,-9999.0,SW,13.8,18.4,N/A,,Clear,230,2013-08-23 01:15:00
6:35 PM,64.4,53.6,68,29.90,-9999.0,SW,9.2,23.0,N/A,,Clear,220,2013-08-23 01:35:00
6:55 PM,64.4,53.6,68,29.90,10.0,NW,3.5,-,N/A,,Clear,310,2013-08-23 01:55:00
7:15 PM,62.6,53.6,72,29.90,-9999.0,NW,3.5,-,N/A,,Clear,320,2013-08-23 02:15:00
7:35 PM,60.8,53.6,77,29.90,10.0,NNW,4.6,-,N/A,,Clear,340,2013-08-23 02:35:00
7:55 PM,59.0,53.6,82,29.90,10.0,Calm,Calm,-,N/A,,Clear,0,2013-08-23 02:55:00
8:15 PM,59.0,53.6,82,29.91,10.0,NE,3.5,-,N/A,,Clear,40,2013-08-23 03:15:00
8:35 PM,59.0,53.6,82,29.91,10.0,ENE,3.5,-,N/A,,Clear,70,2013-08-23 03:35:00
8:55 PM,59.0,53.6,82,29.92,10.0,East,3.5,-,N/A,,Clear,80,2013-08-23 03:55:00
9:15 PM,57.2,53.6,88,29.93,10.0,ENE,3.5,-,N/A,,Clear,70,2013-08-23 04:15:00
9:35 PM,57.2,53.6,88,29.93,10.0,East,4.6,-,N/A,,Clear,90,2013-08-23 04:35:00
9:55 PM,55.4,53.6,94,29.93,10.0,Calm,Calm,-,N/A,,Clear,0,2013-08-23 04:55:00
10:15 PM,57.2,53.6,88,29.93,10.0,East,5.8,-,N/A,,Clear,80,2013-08-23 05:15:00
10:35 PM,57.2,53.6,88,29.93,10.0,ESE,5.8,-,N/A,,Clear,110,2013-08-23 05:35:00
10:55 PM,55.4,53.6,94,29.93,10.0,ENE,3.5,-,N/A,,Clear,60,2013-08-23 05:55:00
11:15 PM,57.2,53.6,88,29.94,10.0,Calm,Calm,-,N/A,,Clear,0,2013-08-23 06:15:00
11:35 PM,57.2,53.6,88,29.93,10.0,Calm,Calm,-,N/A,,Clear,0,2013-08-23 06:35:00
11:55 PM,57.2,55.4,94,29.93,10.0,Calm,Calm,-,N/A,,Partly Cloudy,0,2013-08-23 06:55:00